DAL204 KJFK-KMCO
Flight info
| Callsign | DAL204 |
|---|---|
| Flight time | N/A |
| Altitude | 40000 |
| Route | WAVEY EMJAY Q167 ZJAAY Q97 SAWED MOXXY Q85 LPERD SNFLD3 |
| Aircraft | A339/H-SADE1E2E3GHIJ3J5M1P2RWXY/LB2D1 |
Departure
| Time | 2026-05-03 23:22 |
|---|---|
| Airport | John F. Kennedy International Airport (KJFK) |
Arrival
| Time | N/A |
|---|---|
| Airport | Orlando International Airport (KMCO) |
| Time | Latitude | Longitude | Altitude | Speed | Heading |
|---|---|---|---|---|---|
| 2026-05-03 22:53 | 40.63845 | -73.78035 | 30 ft | 0 kts | 263° |
| 2026-05-03 23:11 | 40.63846 | -73.78030 | 31 ft | 2 kts | 262° |
| 2026-05-03 23:11 | 40.63849 | -73.78011 | 31 ft | 2 kts | 249° |
| 2026-05-03 23:11 | 40.63855 | -73.77993 | 31 ft | 2 kts | 238° |
| 2026-05-03 23:11 | 40.63864 | -73.77977 | 31 ft | 2 kts | 228° |
| 2026-05-03 23:12 | 40.63874 | -73.77963 | 31 ft | 2 kts | 218° |
| 2026-05-03 23:12 | 40.63887 | -73.77953 | 31 ft | 2 kts | 207° |
| 2026-05-03 23:12 | 40.63900 | -73.77945 | 31 ft | 2 kts | 197° |
| 2026-05-03 23:12 | 40.63914 | -73.77940 | 30 ft | 2 kts | 186° |
| 2026-05-03 23:13 | 40.63929 | -73.77940 | 31 ft | 2 kts | 176° |
| 2026-05-03 23:13 | 40.63936 | -73.77940 | 31 ft | 0 kts | 172° |
| 2026-05-03 23:13 | 40.63938 | -73.77940 | 31 ft | 0 kts | 172° |
| 2026-05-03 23:15 | 40.63937 | -73.77940 | 30 ft | 0 kts | 172° |
| 2026-05-03 23:15 | 40.63903 | -73.77934 | 30 ft | 11 kts | 172° |
| 2026-05-03 23:15 | 40.63818 | -73.77921 | 30 ft | 13 kts | 173° |
| 2026-05-03 23:16 | 40.63722 | -73.77906 | 30 ft | 14 kts | 173° |
| 2026-05-03 23:16 | 40.63652 | -73.77895 | 30 ft | 6 kts | 172° |
| 2026-05-03 23:16 | 40.63615 | -73.77885 | 30 ft | 3 kts | 162° |
| 2026-05-03 23:16 | 40.63605 | -73.77880 | 30 ft | 0 kts | 156° |
| 2026-05-03 23:17 | 40.63582 | -73.77861 | 30 ft | 10 kts | 140° |
| 2026-05-03 23:17 | 40.63534 | -73.77824 | 30 ft | 8 kts | 176° |
| 2026-05-03 23:17 | 40.63441 | -73.77877 | 30 ft | 13 kts | 211° |
| 2026-05-03 23:18 | 40.63374 | -73.77907 | 30 ft | 9 kts | 163° |
| 2026-05-03 23:18 | 40.63329 | -73.77843 | 30 ft | 9 kts | 126° |
| 2026-05-03 23:18 | 40.63280 | -73.77740 | 30 ft | 15 kts | 121° |
| 2026-05-03 23:18 | 40.63220 | -73.77607 | 30 ft | 17 kts | 121° |
| 2026-05-03 23:19 | 40.63159 | -73.77475 | 30 ft | 17 kts | 121° |
| 2026-05-03 23:19 | 40.63095 | -73.77334 | 30 ft | 18 kts | 121° |
| 2026-05-03 23:19 | 40.63034 | -73.77196 | 30 ft | 15 kts | 120° |
| 2026-05-03 23:19 | 40.63002 | -73.77124 | 30 ft | 6 kts | 122° |
| 2026-05-03 23:20 | 40.62965 | -73.77089 | 30 ft | 4 kts | 171° |
| 2026-05-03 23:20 | 40.62932 | -73.77097 | 30 ft | 3 kts | 201° |
| 2026-05-03 23:20 | 40.62922 | -73.77102 | 30 ft | 0 kts | 204° |
| 2026-05-03 23:20 | 40.62915 | -73.77106 | 30 ft | 2 kts | 208° |
| 2026-05-03 23:21 | 40.62891 | -73.77128 | 30 ft | 5 kts | 214° |
| 2026-05-03 23:21 | 40.62848 | -73.77168 | 30 ft | 9 kts | 222° |
| 2026-05-03 23:21 | 40.62839 | -73.77258 | 30 ft | 11 kts | 291° |
| 2026-05-03 23:21 | 40.62909 | -73.77422 | 30 ft | 48 kts | 301° |
| 2026-05-03 23:22 | 40.63764 | -73.79323 | 125 ft | 176 kts | 302° |
| 2026-05-03 23:22 | 40.64412 | -73.80755 | 745 ft | 191 kts | 295° |
| 2026-05-03 23:22 | 40.64618 | -73.82436 | 1859 ft | 191 kts | 264° |
| 2026-05-03 23:23 | 40.64145 | -73.84047 | 2616 ft | 202 kts | 242° |
| 2026-05-03 23:23 | 40.63136 | -73.85436 | 3186 ft | 220 kts | 224° |
| 2026-05-03 23:23 | 40.61837 | -73.86554 | 3934 ft | 227 kts | 213° |
| 2026-05-03 23:23 | 40.60357 | -73.87354 | 4659 ft | 235 kts | 202° |
| 2026-05-03 23:24 | 40.58737 | -73.87793 | 5311 ft | 248 kts | 188° |
| 2026-05-03 23:24 | 40.56888 | -73.87581 | 5352 ft | 284 kts | 168° |
| 2026-05-03 23:24 | 40.55024 | -73.86624 | 5151 ft | 292 kts | 158° |
| 2026-05-03 23:24 | 40.53124 | -73.85752 | 5061 ft | 288 kts | 171° |
| 2026-05-03 23:25 | 40.51136 | -73.85312 | 5028 ft | 286 kts | 176° |
| 2026-05-03 23:25 | 40.49170 | -73.85014 | 5017 ft | 286 kts | 178° |
| 2026-05-03 23:25 | 40.47188 | -73.84750 | 5019 ft | 284 kts | 178° |
| 2026-05-03 23:25 | 40.45249 | -73.84248 | 4984 ft | 290 kts | 157° |
| 2026-05-03 23:26 | 40.43663 | -73.82602 | 5004 ft | 294 kts | 130° |
| 2026-05-03 23:26 | 40.42459 | -73.80439 | 5009 ft | 294 kts | 123° |
| 2026-05-03 23:26 | 40.41336 | -73.78246 | 5044 ft | 293 kts | 124° |
| 2026-05-03 23:26 | 40.40152 | -73.76042 | 5010 ft | 293 kts | 126° |
| 2026-05-03 23:27 | 40.38932 | -73.73901 | 5097 ft | 297 kts | 127° |
| 2026-05-03 23:27 | 40.37658 | -73.71753 | 5668 ft | 303 kts | 128° |
| 2026-05-03 23:27 | 40.36348 | -73.69599 | 6632 ft | 301 kts | 128° |
| 2026-05-03 23:27 | 40.35036 | -73.67467 | 7403 ft | 305 kts | 128° |
| 2026-05-03 23:28 | 40.33496 | -73.65559 | 8095 ft | 309 kts | 152° |
| 2026-05-03 23:28 | 40.31475 | -73.64709 | 8836 ft | 307 kts | 175° |
| 2026-05-03 23:28 | 40.29353 | -73.64387 | 9542 ft | 311 kts | 178° |
| 2026-05-03 23:28 | 40.27174 | -73.64095 | 10227 ft | 318 kts | 177° |
| 2026-05-03 23:29 | 40.24941 | -73.63713 | 10694 ft | 333 kts | 175° |
| 2026-05-03 23:29 | 40.22588 | -73.63222 | 11045 ft | 351 kts | 173° |
| 2026-05-03 23:29 | 40.20139 | -73.62649 | 11452 ft | 366 kts | 172° |
| 2026-05-03 23:29 | 40.17629 | -73.62025 | 12167 ft | 371 kts | 172° |
| 2026-05-03 23:30 | 40.15082 | -73.61376 | 12971 ft | 373 kts | 172° |
| 2026-05-03 23:30 | 40.12553 | -73.60728 | 13741 ft | 375 kts | 172° |
| 2026-05-03 23:30 | 40.09985 | -73.60071 | 14509 ft | 378 kts | 173° |
| 2026-05-03 23:30 | 40.07403 | -73.59411 | 15263 ft | 381 kts | 173° |
| 2026-05-03 23:31 | 40.04782 | -73.58744 | 15986 ft | 385 kts | 173° |
| 2026-05-03 23:31 | 40.02161 | -73.58077 | 16696 ft | 389 kts | 174° |
| 2026-05-03 23:31 | 39.99506 | -73.57402 | 17408 ft | 392 kts | 174° |